createdAt,value
2017-10-14T00:01:03.552Z,10.80
2017-10-14T00:03:30.082Z,10.27
2017-10-14T00:05:56.552Z,10.93
2017-10-14T00:08:23.202Z,10.13
2017-10-14T00:10:49.669Z,11.00
2017-10-14T00:13:16.193Z,10.82
2017-10-14T00:15:42.713Z,10.20
2017-10-14T00:18:09.181Z,10.38
2017-10-14T00:20:35.629Z,10.40
2017-10-14T00:23:02.766Z,10.45
2017-10-14T00:25:29.312Z,10.45
2017-10-14T00:27:56.587Z,10.55
2017-10-14T00:30:23.066Z,9.90
2017-10-14T00:32:49.559Z,10.88
2017-10-14T00:35:16.063Z,10.80
2017-10-14T00:37:42.619Z,9.73
2017-10-14T00:40:09.175Z,10.50
2017-10-14T00:42:36.365Z,10.75
2017-10-14T00:45:02.907Z,10.18
2017-10-14T00:47:29.465Z,10.13
2017-10-14T00:49:56.738Z,10.80
2017-10-14T00:52:23.949Z,10.52
2017-10-14T00:54:50.389Z,10.23
2017-10-14T00:57:16.900Z,10.13
2017-10-14T00:59:43.423Z,10.10
2017-10-14T01:02:09.937Z,10.07
2017-10-14T01:04:37.115Z,10.70
2017-10-14T01:07:03.531Z,10.55
2017-10-14T01:09:30.047Z,10.27
2017-10-14T01:11:56.583Z,10.50
2017-10-14T01:14:23.097Z,9.75
2017-10-14T01:16:49.585Z,11.12
2017-10-14T01:19:16.871Z,10.45
2017-10-14T01:21:43.434Z,10.85
2017-10-14T01:24:10.090Z,10.93
2017-10-14T01:26:37.320Z,10.10
2017-10-14T01:29:04.560Z,10.70
2017-10-14T01:31:32.016Z,10.60
2017-10-14T01:33:59.248Z,10.07
2017-10-14T01:36:25.837Z,10.20
2017-10-14T01:38:53.124Z,10.63
2017-10-14T01:41:20.501Z,10.20
2017-10-14T01:43:47.877Z,10.32
2017-10-14T01:46:14.553Z,10.27
2017-10-14T01:48:41.098Z,10.25
2017-10-14T01:51:08.371Z,9.20
2017-10-14T01:53:35.613Z,10.82
2017-10-14T01:56:02.086Z,10.88
2017-10-14T01:58:29.365Z,10.80
2017-10-14T02:00:56.649Z,10.88
2017-10-14T02:03:23.904Z,10.30
2017-10-14T02:05:51.201Z,10.77
2017-10-14T02:08:17.757Z,9.57
2017-10-14T02:10:44.327Z,9.68
2017-10-14T02:13:10.873Z,9.52
2017-10-14T02:15:38.132Z,9.82
2017-10-14T02:18:05.422Z,10.40
2017-10-14T02:20:32.696Z,10.00
2017-10-14T02:22:59.888Z,10.10
2017-10-14T02:25:26.426Z,9.30
2017-10-14T02:27:53.802Z,9.30
2017-10-14T02:30:20.989Z,10.35
2017-10-14T02:32:47.535Z,9.82
2017-10-14T02:35:14.095Z,10.10
2017-10-14T02:37:40.536Z,10.00
2017-10-14T02:40:07.827Z,9.95
2017-10-14T02:42:34.382Z,9.63
2017-10-14T02:45:01.533Z,9.90
2017-10-14T02:47:27.964Z,10.23
2017-10-14T02:49:54.570Z,10.07
2017-10-14T02:52:21.069Z,9.88
2017-10-14T02:54:47.521Z,9.40
2017-10-14T02:57:13.985Z,9.60
2017-10-14T02:59:40.497Z,9.88
2017-10-14T03:02:06.957Z,9.30
2017-10-14T03:04:33.409Z,9.88
2017-10-14T03:07:00.687Z,9.93
2017-10-14T03:09:27.241Z,9.15
2017-10-14T03:11:53.667Z,8.82
2017-10-14T03:14:20.127Z,9.00
2017-10-14T03:16:46.679Z,9.47
2017-10-14T03:19:14.802Z,8.73
2017-10-14T03:21:42.008Z,9.40
2017-10-14T03:24:08.534Z,8.85
2017-10-14T03:26:35.727Z,8.93
2017-10-14T03:29:02.218Z,9.10
2017-10-14T03:31:28.927Z,8.37
2017-10-14T03:33:56.200Z,7.75
2017-10-14T03:36:22.761Z,8.30
2017-10-14T03:38:50.034Z,7.80
2017-10-14T03:41:16.510Z,7.40
2017-10-14T03:43:43.543Z,7.82
2017-10-14T03:46:10.715Z,7.87
2017-10-14T03:48:37.212Z,7.32
2017-10-14T03:51:03.750Z,8.00
2017-10-14T03:53:30.221Z,7.80
2017-10-14T03:55:56.691Z,7.80
2017-10-14T03:58:23.219Z,8.43
2017-10-14T04:00:49.878Z,8.07
2017-10-14T04:03:17.073Z,7.62
2017-10-14T04:05:43.608Z,7.30
2017-10-14T04:08:10.169Z,7.28
2017-10-14T04:10:36.691Z,7.80
2017-10-14T04:13:03.181Z,6.93
2017-10-14T04:15:30.505Z,7.40
2017-10-14T04:17:57.013Z,7.47
2017-10-14T04:20:24.321Z,7.50
2017-10-14T04:22:50.809Z,7.57
2017-10-14T04:25:17.311Z,7.35
2017-10-14T04:27:43.861Z,7.25
2017-10-14T04:30:11.749Z,7.50
2017-10-14T04:32:38.948Z,7.50
2017-10-14T04:35:05.480Z,7.30
2017-10-14T04:37:32.671Z,7.20
2017-10-14T04:39:59.210Z,7.35
2017-10-14T04:42:26.434Z,7.53
2017-10-14T04:44:52.942Z,7.77
2017-10-14T04:47:20.215Z,8.10
2017-10-14T04:49:47.490Z,7.28
2017-10-14T04:52:13.947Z,7.70
2017-10-14T04:54:41.123Z,8.20
2017-10-14T04:57:07.678Z,8.10
2017-10-14T04:59:34.869Z,7.30
2017-10-14T05:02:01.360Z,7.35
2017-10-14T05:04:27.819Z,7.22
2017-10-14T05:06:54.784Z,8.57
2017-10-14T05:09:21.287Z,7.60
2017-10-14T05:11:48.509Z,7.50
2017-10-14T05:14:15.119Z,7.40
2017-10-14T05:16:41.560Z,7.53
2017-10-14T05:19:08.965Z,8.93
2017-10-14T05:21:35.510Z,8.00
2017-10-14T05:24:02.785Z,9.43
2017-10-14T05:26:30.061Z,7.32
2017-10-14T05:28:57.334Z,7.70
2017-10-14T05:31:23.774Z,7.50
2017-10-14T05:33:50.991Z,8.50
2017-10-14T05:36:17.403Z,8.05
2017-10-14T05:38:44.698Z,7.50
2017-10-14T05:41:11.972Z,7.40
2017-10-14T05:43:38.436Z,7.30
2017-10-14T05:46:04.983Z,7.53
2017-10-14T05:48:31.482Z,8.07
2017-10-14T05:50:57.998Z,7.25
2017-10-14T05:53:25.472Z,7.75
2017-10-14T05:55:52.641Z,7.95
2017-10-14T05:58:19.838Z,8.20
2017-10-14T06:00:46.381Z,7.57
2017-10-14T06:03:12.938Z,7.43
2017-10-14T06:05:40.755Z,7.30
2017-10-14T06:08:07.208Z,7.80
2017-10-14T06:10:33.738Z,7.83
2017-10-14T06:13:01.011Z,8.27
2017-10-14T06:15:28.272Z,8.10
2017-10-14T06:17:55.664Z,8.95
2017-10-14T06:20:22.141Z,9.35
2017-10-14T06:22:48.649Z,9.98
2017-10-14T06:25:15.911Z,10.43
2017-10-14T06:27:42.513Z,11.20
2017-10-14T06:30:09.761Z,9.65
2017-10-14T06:32:36.352Z,11.82
2017-10-14T06:35:02.916Z,10.40
2017-10-14T06:37:29.462Z,9.60
2017-10-14T06:39:56.125Z,9.30
2017-10-14T06:42:22.683Z,9.95
2017-10-14T06:44:49.182Z,10.10
2017-10-14T06:47:15.673Z,9.15
2017-10-14T06:49:42.212Z,7.78
2017-10-14T06:52:08.810Z,8.23
2017-10-14T06:54:36.099Z,6.70
2017-10-14T06:57:02.749Z,6.72
2017-10-14T06:59:29.407Z,6.60
2017-10-14T07:01:56.071Z,6.80
2017-10-14T07:04:23.360Z,6.40
2017-10-14T07:06:49.879Z,6.40
2017-10-14T07:09:17.280Z,6.33
2017-10-14T07:11:43.842Z,7.35
2017-10-14T07:14:10.365Z,9.00
2017-10-14T07:16:37.668Z,5.90
2017-10-14T07:19:05.355Z,7.47
2017-10-14T07:21:31.911Z,6.40
2017-10-14T07:23:58.472Z,6.57
2017-10-14T07:26:26.048Z,6.17
2017-10-14T07:28:53.326Z,6.40
2017-10-14T07:31:19.985Z,7.10
2017-10-14T07:33:46.542Z,6.90
2017-10-14T07:36:13.920Z,7.30
2017-10-14T07:38:41.161Z,7.33
2017-10-14T07:41:07.666Z,7.37
2017-10-14T07:43:34.207Z,7.10
2017-10-14T07:46:01.586Z,7.40
2017-10-14T07:48:28.248Z,7.70
2017-10-14T07:50:54.803Z,7.43
2017-10-14T07:53:21.365Z,7.07
2017-10-14T07:55:48.741Z,7.53
2017-10-14T07:58:15.767Z,7.43
2017-10-14T08:00:42.469Z,8.00
2017-10-14T08:03:09.032Z,6.90
2017-10-14T08:05:35.555Z,8.02
2017-10-14T08:08:02.061Z,8.00
2017-10-14T08:10:28.600Z,7.75
2017-10-14T08:12:55.799Z,6.90
